sensor_id;sensor_type;location;lat;lon;timestamp;P1;durP1;ratioP1;P2;durP2;ratioP2
23046;SDS011;11691;51.462;6.902;2023-04-24T00:00:07;0.95;;;0.50;;
23046;SDS011;11691;51.462;6.902;2023-04-24T00:02:43;1.90;;;0.50;;
23046;SDS011;11691;51.462;6.902;2023-04-24T00:05:12;1.23;;;0.80;;
23046;SDS011;11691;51.462;6.902;2023-04-24T00:07:39;1.08;;;0.50;;
23046;SDS011;11691;51.462;6.902;2023-04-24T00:10:05;2.85;;;0.63;;
23046;SDS011;11691;51.462;6.902;2023-04-24T00:12:32;1.17;;;0.63;;
23046;SDS011;11691;51.462;6.902;2023-04-24T00:14:58;2.20;;;0.90;;
23046;SDS011;11691;51.462;6.902;2023-04-24T00:17:23;2.45;;;0.75;;
23046;SDS011;11691;51.462;6.902;2023-04-24T00:19:49;2.80;;;0.82;;
23046;SDS011;11691;51.462;6.902;2023-04-24T00:22:16;1.40;;;0.70;;
23046;SDS011;11691;51.462;6.902;2023-04-24T00:24:42;1.10;;;0.70;;
23046;SDS011;11691;51.462;6.902;2023-04-24T00:27:09;4.25;;;0.93;;
23046;SDS011;11691;51.462;6.902;2023-04-24T00:29:35;3.25;;;1.00;;
23046;SDS011;11691;51.462;6.902;2023-04-24T00:32:01;1.23;;;0.75;;
23046;SDS011;11691;51.462;6.902;2023-04-24T00:34:27;2.90;;;1.23;;
23046;SDS011;11691;51.462;6.902;2023-04-24T00:36:53;2.45;;;1.00;;
23046;SDS011;11691;51.462;6.902;2023-04-24T00:39:19;1.30;;;1.00;;
23046;SDS011;11691;51.462;6.902;2023-04-24T00:41:45;1.65;;;1.00;;
23046;SDS011;11691;51.462;6.902;2023-04-24T00:44:13;3.33;;;1.23;;
23046;SDS011;11691;51.462;6.902;2023-04-24T00:46:39;2.30;;;1.00;;
23046;SDS011;11691;51.462;6.902;2023-04-24T00:49:05;1.48;;;1.25;;
23046;SDS011;11691;51.462;6.902;2023-04-24T00:51:33;4.25;;;1.33;;
23046;SDS011;11691;51.462;6.902;2023-04-24T00:54:00;2.08;;;1.15;;
23046;SDS011;11691;51.462;6.902;2023-04-24T00:56:26;1.25;;;1.15;;
23046;SDS011;11691;51.462;6.902;2023-04-24T00:58:52;1.70;;;1.30;;
23046;SDS011;11691;51.462;6.902;2023-04-24T01:01:19;3.42;;;1.30;;
23046;SDS011;11691;51.462;6.902;2023-04-24T01:03:45;3.58;;;1.20;;
23046;SDS011;11691;51.462;6.902;2023-04-24T01:06:12;2.28;;;1.40;;
23046;SDS011;11691;51.462;6.902;2023-04-24T01:08:38;2.53;;;1.40;;
23046;SDS011;11691;51.462;6.902;2023-04-24T01:11:05;1.88;;;1.45;;
23046;SDS011;11691;51.462;6.902;2023-04-24T01:13:31;3.35;;;1.38;;
23046;SDS011;11691;51.462;6.902;2023-04-24T01:15:57;2.90;;;2.60;;
23046;SDS011;11691;51.462;6.902;2023-04-24T01:18:24;6.15;;;3.10;;
23046;SDS011;11691;51.462;6.902;2023-04-24T01:20:53;5.18;;;2.90;;
23046;SDS011;11691;51.462;6.902;2023-04-24T01:23:19;6.00;;;3.38;;
23046;SDS011;11691;51.462;6.902;2023-04-24T01:25:45;3.63;;;3.25;;
23046;SDS011;11691;51.462;6.902;2023-04-24T01:28:11;6.05;;;3.80;;
23046;SDS011;11691;51.462;6.902;2023-04-24T01:30:39;4.75;;;3.70;;
23046;SDS011;11691;51.462;6.902;2023-04-24T01:33:05;5.30;;;3.87;;
23046;SDS011;11691;51.462;6.902;2023-04-24T01:35:31;8.85;;;4.68;;
23046;SDS011;11691;51.462;6.902;2023-04-24T01:37:56;5.80;;;4.07;;
23046;SDS011;11691;51.462;6.902;2023-04-24T01:40:22;5.50;;;4.07;;
23046;SDS011;11691;51.462;6.902;2023-04-24T01:42:49;4.70;;;3.42;;
23046;SDS011;11691;51.462;6.902;2023-04-24T01:45:15;5.28;;;4.15;;
23046;SDS011;11691;51.462;6.902;2023-04-24T01:47:41;5.97;;;3.65;;
23046;SDS011;11691;51.462;6.902;2023-04-24T01:50:07;5.30;;;3.60;;
23046;SDS011;11691;51.462;6.902;2023-04-24T01:52:33;4.72;;;3.47;;
23046;SDS011;11691;51.462;6.902;2023-04-24T01:55:00;6.27;;;4.23;;
23046;SDS011;11691;51.462;6.902;2023-04-24T01:57:27;4.97;;;3.50;;
23046;SDS011;11691;51.462;6.902;2023-04-24T01:59:55;7.50;;;4.28;;
23046;SDS011;11691;51.462;6.902;2023-04-24T02:02:21;6.57;;;3.35;;
23046;SDS011;11691;51.462;6.902;2023-04-24T02:04:49;4.47;;;3.28;;
23046;SDS011;11691;51.462;6.902;2023-04-24T02:07:15;4.32;;;3.20;;
23046;SDS011;11691;51.462;6.902;2023-04-24T02:09:41;5.57;;;3.92;;
23046;SDS011;11691;51.462;6.902;2023-04-24T02:12:07;6.45;;;3.65;;
23046;SDS011;11691;51.462;6.902;2023-04-24T02:14:33;5.82;;;3.80;;
23046;SDS011;11691;51.462;6.902;2023-04-24T02:16:59;4.38;;;3.53;;
23046;SDS011;11691;51.462;6.902;2023-04-24T02:19:25;4.97;;;3.72;;
23046;SDS011;11691;51.462;6.902;2023-04-24T02:21:51;6.90;;;4.60;;
23046;SDS011;11691;51.462;6.902;2023-04-24T02:24:17;10.65;;;4.43;;
23046;SDS011;11691;51.462;6.902;2023-04-24T02:26:43;5.72;;;4.50;;
23046;SDS011;11691;51.462;6.902;2023-04-24T02:29:09;7.88;;;4.68;;
23046;SDS011;11691;51.462;6.902;2023-04-24T02:31:35;9.25;;;5.30;;
23046;SDS011;11691;51.462;6.902;2023-04-24T02:34:01;11.17;;;6.20;;
23046;SDS011;11691;51.462;6.902;2023-04-24T02:36:27;11.07;;;5.90;;
23046;SDS011;11691;51.462;6.902;2023-04-24T02:38:53;7.85;;;5.45;;
23046;SDS011;11691;51.462;6.902;2023-04-24T02:41:19;10.37;;;5.50;;
23046;SDS011;11691;51.462;6.902;2023-04-24T02:43:45;11.70;;;6.20;;
23046;SDS011;11691;51.462;6.902;2023-04-24T02:46:11;12.53;;;6.70;;
23046;SDS011;11691;51.462;6.902;2023-04-24T02:48:37;15.05;;;7.07;;
23046;SDS011;11691;51.462;6.902;2023-04-24T02:51:02;9.88;;;6.72;;
23046;SDS011;11691;51.462;6.902;2023-04-24T02:53:28;12.65;;;6.90;;
23046;SDS011;11691;51.462;6.902;2023-04-24T02:55:57;11.45;;;7.43;;
23046;SDS011;11691;51.462;6.902;2023-04-24T02:58:23;12.52;;;8.05;;
23046;SDS011;11691;51.462;6.902;2023-04-24T03:00:52;12.55;;;7.22;;
23046;SDS011;11691;51.462;6.902;2023-04-24T03:03:19;12.20;;;7.50;;
23046;SDS011;11691;51.462;6.902;2023-04-24T03:05:45;12.33;;;7.30;;
23046;SDS011;11691;51.462;6.902;2023-04-24T03:08:12;12.80;;;7.40;;
23046;SDS011;11691;51.462;6.902;2023-04-24T03:10:39;12.25;;;7.38;;
23046;SDS011;11691;51.462;6.902;2023-04-24T03:13:05;14.48;;;8.05;;
23046;SDS011;11691;51.462;6.902;2023-04-24T03:15:31;17.55;;;8.75;;
23046;SDS011;11691;51.462;6.902;2023-04-24T03:17:57;16.00;;;7.78;;
23046;SDS011;11691;51.462;6.902;2023-04-24T03:20:23;19.52;;;8.25;;
23046;SDS011;11691;51.462;6.902;2023-04-24T03:22:49;16.37;;;8.13;;
23046;SDS011;11691;51.462;6.902;2023-04-24T03:25:15;13.80;;;8.13;;
23046;SDS011;11691;51.462;6.902;2023-04-24T03:27:41;11.93;;;8.03;;
23046;SDS011;11691;51.462;6.902;2023-04-24T03:30:07;14.57;;;8.67;;
23046;SDS011;11691;51.462;6.902;2023-04-24T03:32:33;15.45;;;8.23;;
23046;SDS011;11691;51.462;6.902;2023-04-24T03:34:59;14.75;;;9.60;;
23046;SDS011;11691;51.462;6.902;2023-04-24T03:37:25;15.90;;;8.70;;
23046;SDS011;11691;51.462;6.902;2023-04-24T03:39:52;15.68;;;9.00;;
23046;SDS011;11691;51.462;6.902;2023-04-24T03:42:18;17.80;;;9.10;;
23046;SDS011;11691;51.462;6.902;2023-04-24T03:44:44;16.15;;;9.80;;
23046;SDS011;11691;51.462;6.902;2023-04-24T03:47:10;12.83;;;8.73;;
23046;SDS011;11691;51.462;6.902;2023-04-24T03:49:36;18.30;;;9.63;;
23046;SDS011;11691;51.462;6.902;2023-04-24T03:52:02;16.05;;;9.15;;
23046;SDS011;11691;51.462;6.902;2023-04-24T03:54:28;13.63;;;8.63;;
23046;SDS011;11691;51.462;6.902;2023-04-24T03:56:54;14.97;;;8.73;;
23046;SDS011;11691;51.462;6.902;2023-04-24T03:59:20;15.47;;;9.00;;
23046;SDS011;11691;51.462;6.902;2023-04-24T04:01:46;14.97;;;8.73;;
23046;SDS011;11691;51.462;6.902;2023-04-24T04:04:12;15.60;;;8.60;;
23046;SDS011;11691;51.462;6.902;2023-04-24T04:06:38;17.17;;;8.85;;
23046;SDS011;11691;51.462;6.902;2023-04-24T04:09:04;13.05;;;8.40;;
23046;SDS011;11691;51.462;6.902;2023-04-24T04:11:30;13.23;;;8.32;;
23046;SDS011;11691;51.462;6.902;2023-04-24T04:13:56;17.23;;;8.93;;
23046;SDS011;11691;51.462;6.902;2023-04-24T04:16:22;14.55;;;9.05;;
23046;SDS011;11691;51.462;6.902;2023-04-24T04:18:49;12.77;;;8.50;;
23046;SDS011;11691;51.462;6.902;2023-04-24T04:21:14;15.27;;;8.97;;
23046;SDS011;11691;51.462;6.902;2023-04-24T04:23:40;12.73;;;8.43;;
23046;SDS011;11691;51.462;6.902;2023-04-24T04:26:06;14.80;;;8.60;;
23046;SDS011;11691;51.462;6.902;2023-04-24T04:28:33;11.30;;;7.47;;
23046;SDS011;11691;51.462;6.902;2023-04-24T04:30:59;14.17;;;8.33;;
23046;SDS011;11691;51.462;6.902;2023-04-24T04:33:26;13.80;;;7.63;;
23046;SDS011;11691;51.462;6.902;2023-04-24T04:35:51;17.05;;;8.13;;
23046;SDS011;11691;51.462;6.902;2023-04-24T04:38:19;11.33;;;8.13;;
23046;SDS011;11691;51.462;6.902;2023-04-24T04:40:46;12.68;;;7.93;;
23046;SDS011;11691;51.462;6.902;2023-04-24T04:43:12;14.18;;;7.72;;
23046;SDS011;11691;51.462;6.902;2023-04-24T04:45:41;11.32;;;8.40;;
23046;SDS011;11691;51.462;6.902;2023-04-24T04:48:08;11.40;;;7.70;;
23046;SDS011;11691;51.462;6.902;2023-04-24T04:50:36;15.65;;;8.45;;
23046;SDS011;11691;51.462;6.902;2023-04-24T04:53:02;13.30;;;8.45;;
23046;SDS011;11691;51.462;6.902;2023-04-24T04:55:28;13.60;;;7.83;;
23046;SDS011;11691;51.462;6.902;2023-04-24T04:57:55;15.65;;;8.13;;
23046;SDS011;11691;51.462;6.902;2023-04-24T05:00:21;14.93;;;7.30;;
23046;SDS011;11691;51.462;6.902;2023-04-24T05:02:50;13.60;;;8.15;;
23046;SDS011;11691;51.462;6.902;2023-04-24T05:05:16;14.68;;;8.32;;
23046;SDS011;11691;51.462;6.902;2023-04-24T05:07:42;12.65;;;7.25;;
23046;SDS011;11691;51.462;6.902;2023-04-24T05:10:08;15.30;;;8.70;;
23046;SDS011;11691;51.462;6.902;2023-04-24T05:12:34;12.35;;;7.50;;
23046;SDS011;11691;51.462;6.902;2023-04-24T05:15:00;14.73;;;7.63;;
23046;SDS011;11691;51.462;6.902;2023-04-24T05:17:26;12.90;;;6.93;;
23046;SDS011;11691;51.462;6.902;2023-04-24T05:19:52;11.98;;;7.25;;
23046;SDS011;11691;51.462;6.902;2023-04-24T05:22:18;10.05;;;6.90;;
23046;SDS011;11691;51.462;6.902;2023-04-24T05:24:45;11.87;;;7.27;;
23046;SDS011;11691;51.462;6.902;2023-04-24T05:27:12;12.20;;;7.90;;
23046;SDS011;11691;51.462;6.902;2023-04-24T05:29:38;11.33;;;7.03;;
23046;SDS011;11691;51.462;6.902;2023-04-24T05:32:04;9.33;;;7.13;;
23046;SDS011;11691;51.462;6.902;2023-04-24T05:34:30;12.27;;;8.10;;
23046;SDS011;11691;51.462;6.902;2023-04-24T05:36:56;12.03;;;8.43;;
23046;SDS011;11691;51.462;6.902;2023-04-24T05:39:22;15.30;;;8.77;;
23046;SDS011;11691;51.462;6.902;2023-04-24T05:41:49;13.53;;;8.17;;
23046;SDS011;11691;51.462;6.902;2023-04-24T05:44:15;15.17;;;9.17;;
23046;SDS011;11691;51.462;6.902;2023-04-24T05:46:41;15.43;;;9.40;;
23046;SDS011;11691;51.462;6.902;2023-04-24T05:49:07;17.73;;;9.43;;
23046;SDS011;11691;51.462;6.902;2023-04-24T05:51:33;16.37;;;9.73;;
23046;SDS011;11691;51.462;6.902;2023-04-24T05:53:59;16.20;;;8.97;;
23046;SDS011;11691;51.462;6.902;2023-04-24T05:56:24;13.03;;;9.10;;
23046;SDS011;11691;51.462;6.902;2023-04-24T05:58:50;15.80;;;9.10;;
23046;SDS011;11691;51.462;6.902;2023-04-24T06:01:16;13.43;;;9.33;;
23046;SDS011;11691;51.462;6.902;2023-04-24T06:03:43;14.03;;;8.17;;
23046;SDS011;11691;51.462;6.902;2023-04-24T06:06:09;13.03;;;8.33;;
23046;SDS011;11691;51.462;6.902;2023-04-24T06:08:35;16.80;;;9.03;;
23046;SDS011;11691;51.462;6.902;2023-04-24T06:11:01;10.83;;;8.23;;
23046;SDS011;11691;51.462;6.902;2023-04-24T06:13:27;14.10;;;7.67;;
23046;SDS011;11691;51.462;6.902;2023-04-24T06:15:53;13.70;;;8.00;;
23046;SDS011;11691;51.462;6.902;2023-04-24T06:18:19;14.47;;;8.10;;
23046;SDS011;11691;51.462;6.902;2023-04-24T06:20:46;11.53;;;7.80;;
23046;SDS011;11691;51.462;6.902;2023-04-24T06:23:11;11.70;;;7.87;;
23046;SDS011;11691;51.462;6.902;2023-04-24T06:25:37;11.43;;;7.70;;
23046;SDS011;11691;51.462;6.902;2023-04-24T06:28:03;13.77;;;8.47;;
23046;SDS011;11691;51.462;6.902;2023-04-24T06:30:29;13.47;;;7.40;;
23046;SDS011;11691;51.462;6.902;2023-04-24T06:32:55;11.83;;;7.50;;
23046;SDS011;11691;51.462;6.902;2023-04-24T06:35:21;11.03;;;7.87;;
23046;SDS011;11691;51.462;6.902;2023-04-24T06:37:47;11.83;;;7.53;;
23046;SDS011;11691;51.462;6.902;2023-04-24T06:40:14;13.20;;;8.50;;
23046;SDS011;11691;51.462;6.902;2023-04-24T06:42:40;13.20;;;7.30;;
23046;SDS011;11691;51.462;6.902;2023-04-24T06:45:06;9.33;;;6.53;;
23046;SDS011;11691;51.462;6.902;2023-04-24T06:47:32;10.30;;;6.80;;
23046;SDS011;11691;51.462;6.902;2023-04-24T06:49:58;10.00;;;6.93;;
23046;SDS011;11691;51.462;6.902;2023-04-24T06:52:24;11.17;;;7.00;;
23046;SDS011;11691;51.462;6.902;2023-04-24T06:54:50;9.30;;;6.53;;
23046;SDS011;11691;51.462;6.902;2023-04-24T06:57:17;10.37;;;6.23;;
23046;SDS011;11691;51.462;6.902;2023-04-24T06:59:42;9.93;;;6.50;;
23046;SDS011;11691;51.462;6.902;2023-04-24T07:02:08;11.50;;;6.73;;
23046;SDS011;11691;51.462;6.902;2023-04-24T07:04:34;8.50;;;6.37;;
23046;SDS011;11691;51.462;6.902;2023-04-24T07:07:00;7.13;;;5.67;;
23046;SDS011;11691;51.462;6.902;2023-04-24T07:09:27;7.53;;;5.57;;
23046;SDS011;11691;51.462;6.902;2023-04-24T07:11:53;7.93;;;5.07;;
23046;SDS011;11691;51.462;6.902;2023-04-24T07:14:20;6.80;;;4.67;;
23046;SDS011;11691;51.462;6.902;2023-04-24T07:16:46;7.60;;;4.20;;
23046;SDS011;11691;51.462;6.902;2023-04-24T07:19:12;8.93;;;4.43;;
23046;SDS011;11691;51.462;6.902;2023-04-24T07:21:39;7.03;;;4.53;;
23046;SDS011;11691;51.462;6.902;2023-04-24T07:24:05;6.17;;;4.47;;
23046;SDS011;11691;51.462;6.902;2023-04-24T07:26:34;6.10;;;4.40;;
23046;SDS011;11691;51.462;6.902;2023-04-24T07:29:00;6.90;;;4.27;;
23046;SDS011;11691;51.462;6.902;2023-04-24T07:31:26;5.50;;;4.07;;
23046;SDS011;11691;51.462;6.902;2023-04-24T07:33:52;5.40;;;3.80;;
23046;SDS011;11691;51.462;6.902;2023-04-24T07:36:18;7.27;;;4.13;;
23046;SDS011;11691;51.462;6.902;2023-04-24T07:38:45;6.70;;;4.33;;
23046;SDS011;11691;51.462;6.902;2023-04-24T07:41:12;6.27;;;3.60;;
23046;SDS011;11691;51.462;6.902;2023-04-24T07:43:38;5.27;;;3.17;;
23046;SDS011;11691;51.462;6.902;2023-04-24T07:46:04;3.10;;;2.13;;
23046;SDS011;11691;51.462;6.902;2023-04-24T07:48:31;5.53;;;2.00;;
23046;SDS011;11691;51.462;6.902;2023-04-24T07:50:57;5.33;;;2.70;;
23046;SDS011;11691;51.462;6.902;2023-04-24T07:53:23;5.10;;;3.10;;
23046;SDS011;11691;51.462;6.902;2023-04-24T07:55:49;4.40;;;2.80;;
23046;SDS011;11691;51.462;6.902;2023-04-24T07:58:15;2.47;;;1.70;;
23046;SDS011;11691;51.462;6.902;2023-04-24T08:00:41;3.27;;;1.50;;
23046;SDS011;11691;51.462;6.902;2023-04-24T08:03:07;2.20;;;1.40;;
23046;SDS011;11691;51.462;6.902;2023-04-24T08:05:32;2.57;;;1.20;;
23046;SDS011;11691;51.462;6.902;2023-04-24T08:07:59;1.93;;;1.37;;
23046;SDS011;11691;51.462;6.902;2023-04-24T08:10:25;1.60;;;1.20;;
23046;SDS011;11691;51.462;6.902;2023-04-24T08:12:51;3.40;;;1.47;;
23046;SDS011;11691;51.462;6.902;2023-04-24T08:15:17;3.93;;;1.73;;
23046;SDS011;11691;51.462;6.902;2023-04-24T08:17:43;3.37;;;2.37;;
23046;SDS011;11691;51.462;6.902;2023-04-24T08:20:10;4.47;;;2.40;;
23046;SDS011;11691;51.462;6.902;2023-04-24T08:22:41;5.27;;;2.57;;
23046;SDS011;11691;51.462;6.902;2023-04-24T08:25:08;4.83;;;2.43;;
23046;SDS011;11691;51.462;6.902;2023-04-24T08:27:35;4.50;;;2.63;;
23046;SDS011;11691;51.462;6.902;2023-04-24T08:30:04;5.33;;;2.80;;
23046;SDS011;11691;51.462;6.902;2023-04-24T08:32:30;4.63;;;2.90;;
23046;SDS011;11691;51.462;6.902;2023-04-24T08:34:57;5.97;;;2.97;;
23046;SDS011;11691;51.462;6.902;2023-04-24T08:37:23;4.20;;;2.90;;
23046;SDS011;11691;51.462;6.902;2023-04-24T08:39:49;4.57;;;2.87;;
23046;SDS011;11691;51.462;6.902;2023-04-24T08:42:16;4.57;;;2.83;;
23046;SDS011;11691;51.462;6.902;2023-04-24T08:44:43;3.73;;;2.83;;
23046;SDS011;11691;51.462;6.902;2023-04-24T08:47:09;3.57;;;2.07;;
23046;SDS011;11691;51.462;6.902;2023-04-24T08:49:36;5.50;;;2.03;;
23046;SDS011;11691;51.462;6.902;2023-04-24T08:52:02;2.27;;;1.80;;
23046;SDS011;11691;51.462;6.902;2023-04-24T08:54:28;4.10;;;2.07;;
23046;SDS011;11691;51.462;6.902;2023-04-24T08:56:57;2.10;;;1.90;;
23046;SDS011;11691;51.462;6.902;2023-04-24T08:59:26;3.20;;;2.10;;
23046;SDS011;11691;51.462;6.902;2023-04-24T09:01:53;2.50;;;1.50;;
23046;SDS011;11691;51.462;6.902;2023-04-24T09:04:21;1.80;;;1.37;;
23046;SDS011;11691;51.462;6.902;2023-04-24T09:06:49;3.83;;;1.63;;
23046;SDS011;11691;51.462;6.902;2023-04-24T09:09:15;2.77;;;1.60;;
23046;SDS011;11691;51.462;6.902;2023-04-24T09:11:42;2.50;;;1.27;;
23046;SDS011;11691;51.462;6.902;2023-04-24T09:14:09;1.97;;;1.43;;
23046;SDS011;11691;51.462;6.902;2023-04-24T09:16:35;4.57;;;1.50;;
23046;SDS011;11691;51.462;6.902;2023-04-24T09:19:01;3.60;;;2.60;;
23046;SDS011;11691;51.462;6.902;2023-04-24T09:21:34;4.63;;;3.40;;
23046;SDS011;11691;51.462;6.902;2023-04-24T09:24:01;7.40;;;5.10;;
23046;SDS011;11691;51.462;6.902;2023-04-24T09:26:31;10.57;;;6.13;;
23046;SDS011;11691;51.462;6.902;2023-04-24T09:28:58;10.27;;;6.23;;
23046;SDS011;11691;51.462;6.902;2023-04-24T09:31:24;10.37;;;6.47;;
23046;SDS011;11691;51.462;6.902;2023-04-24T09:33:56;9.17;;;6.20;;
23046;SDS011;11691;51.462;6.902;2023-04-24T09:38:58;8.37;;;4.90;;
23046;SDS011;11691;51.462;6.902;2023-04-24T09:41:24;6.73;;;4.47;;
23046;SDS011;11691;51.462;6.902;2023-04-24T09:43:50;5.33;;;3.93;;
23046;SDS011;11691;51.462;6.902;2023-04-24T09:46:16;6.13;;;4.10;;
23046;SDS011;11691;51.462;6.902;2023-04-24T09:48:44;6.67;;;4.10;;
23046;SDS011;11691;51.462;6.902;2023-04-24T09:51:10;9.97;;;4.77;;
23046;SDS011;11691;51.462;6.902;2023-04-24T09:53:36;7.93;;;4.77;;
23046;SDS011;11691;51.462;6.902;2023-04-24T09:56:10;7.77;;;5.30;;
23046;SDS011;11691;51.462;6.902;2023-04-24T09:58:39;8.73;;;5.50;;
23046;SDS011;11691;51.462;6.902;2023-04-24T10:01:05;9.23;;;5.53;;
23046;SDS011;11691;51.462;6.902;2023-04-24T10:03:33;8.77;;;5.93;;
23046;SDS011;11691;51.462;6.902;2023-04-24T10:06:00;9.00;;;6.23;;
23046;SDS011;11691;51.462;6.902;2023-04-24T10:08:26;9.30;;;6.53;;
23046;SDS011;11691;51.462;6.902;2023-04-24T10:10:58;10.20;;;6.60;;
23046;SDS011;11691;51.462;6.902;2023-04-24T10:13:25;12.47;;;5.67;;
23046;SDS011;11691;51.462;6.902;2023-04-24T10:15:51;12.00;;;6.40;;
23046;SDS011;11691;51.462;6.902;2023-04-24T10:18:17;10.80;;;6.43;;
23046;SDS011;11691;51.462;6.902;2023-04-24T10:20:43;11.30;;;6.43;;
23046;SDS011;11691;51.462;6.902;2023-04-24T10:23:10;15.77;;;6.87;;
23046;SDS011;11691;51.462;6.902;2023-04-24T10:25:37;8.57;;;5.93;;
23046;SDS011;11691;51.462;6.902;2023-04-24T10:28:03;10.07;;;5.53;;
23046;SDS011;11691;51.462;6.902;2023-04-24T10:30:30;14.07;;;5.30;;
23046;SDS011;11691;51.462;6.902;2023-04-24T10:33:00;11.57;;;4.90;;
23046;SDS011;11691;51.462;6.902;2023-04-24T10:35:26;16.10;;;5.50;;
23046;SDS011;11691;51.462;6.902;2023-04-24T10:38:08;11.77;;;5.80;;
23046;SDS011;11691;51.462;6.902;2023-04-24T10:40:35;13.63;;;6.10;;
23046;SDS011;11691;51.462;6.902;2023-04-24T10:43:02;13.17;;;5.00;;
23046;SDS011;11691;51.462;6.902;2023-04-24T10:45:31;13.87;;;5.93;;
23046;SDS011;11691;51.462;6.902;2023-04-24T10:47:57;12.80;;;5.63;;
23046;SDS011;11691;51.462;6.902;2023-04-24T10:50:26;13.73;;;5.47;;
23046;SDS011;11691;51.462;6.902;2023-04-24T10:53:05;14.37;;;6.33;;
23046;SDS011;11691;51.462;6.902;2023-04-24T10:55:43;13.63;;;5.73;;
23046;SDS011;11691;51.462;6.902;2023-04-24T10:58:10;15.53;;;5.47;;
23046;SDS011;11691;51.462;6.902;2023-04-24T11:00:37;12.50;;;5.67;;
23046;SDS011;11691;51.462;6.902;2023-04-24T11:03:04;15.10;;;6.03;;
23046;SDS011;11691;51.462;6.902;2023-04-24T11:08:32;15.67;;;5.40;;
23046;SDS011;11691;51.462;6.902;2023-04-24T11:11:03;13.87;;;4.97;;
23046;SDS011;11691;51.462;6.902;2023-04-24T11:14:14;14.53;;;5.80;;
23046;SDS011;11691;51.462;6.902;2023-04-24T11:16:25;10.93;;;5.57;;
23046;SDS011;11691;51.462;6.902;2023-04-24T11:19:04;14.32;;;4.90;;
23046;SDS011;11691;51.462;6.902;2023-04-24T11:21:31;14.87;;;5.30;;
23046;SDS011;11691;51.462;6.902;2023-04-24T11:26:55;18.23;;;5.60;;
23046;SDS011;11691;51.462;6.902;2023-04-24T11:29:42;10.35;;;5.30;;
23046;SDS011;11691;51.462;6.902;2023-04-24T11:34:46;16.03;;;4.87;;
23046;SDS011;11691;51.462;6.902;2023-04-24T11:37:13;11.10;;;4.93;;
23046;SDS011;11691;51.462;6.902;2023-04-24T11:39:39;18.90;;;5.33;;
23046;SDS011;11691;51.462;6.902;2023-04-24T11:42:05;12.30;;;4.10;;
23046;SDS011;11691;51.462;6.902;2023-04-24T11:44:33;11.43;;;3.87;;
23046;SDS011;11691;51.462;6.902;2023-04-24T11:46:59;11.27;;;3.60;;
23046;SDS011;11691;51.462;6.902;2023-04-24T11:49:25;11.33;;;3.57;;
23046;SDS011;11691;51.462;6.902;2023-04-24T11:51:54;10.93;;;3.40;;
23046;SDS011;11691;51.462;6.902;2023-04-24T11:54:21;9.43;;;3.97;;
23046;SDS011;11691;51.462;6.902;2023-04-24T11:56:47;11.17;;;3.87;;
23046;SDS011;11691;51.462;6.902;2023-04-24T11:59:13;11.20;;;3.80;;
23046;SDS011;11691;51.462;6.902;2023-04-24T12:01:43;10.60;;;3.90;;
23046;SDS011;11691;51.462;6.902;2023-04-24T12:04:10;8.27;;;3.63;;
23046;SDS011;11691;51.462;6.902;2023-04-24T12:06:36;9.57;;;4.20;;
23046;SDS011;11691;51.462;6.902;2023-04-24T12:09:02;7.43;;;3.60;;
23046;SDS011;11691;51.462;6.902;2023-04-24T12:11:27;9.40;;;3.85;;
23046;SDS011;11691;51.462;6.902;2023-04-24T12:13:53;6.60;;;3.15;;
23046;SDS011;11691;51.462;6.902;2023-04-24T12:16:20;5.55;;;3.00;;
23046;SDS011;11691;51.462;6.902;2023-04-24T12:18:46;7.15;;;3.30;;
23046;SDS011;11691;51.462;6.902;2023-04-24T12:21:15;9.35;;;3.25;;
23046;SDS011;11691;51.462;6.902;2023-04-24T12:23:44;10.82;;;3.88;;
23046;SDS011;11691;51.462;6.902;2023-04-24T12:26:10;11.27;;;3.58;;
23046;SDS011;11691;51.462;6.902;2023-04-24T12:28:37;10.57;;;3.63;;
23046;SDS011;11691;51.462;6.902;2023-04-24T12:31:04;8.38;;;3.20;;
23046;SDS011;11691;51.462;6.902;2023-04-24T12:33:33;4.80;;;2.90;;
23046;SDS011;11691;51.462;6.902;2023-04-24T12:35:59;3.53;;;1.85;;
23046;SDS011;11691;51.462;6.902;2023-04-24T12:38:26;7.10;;;2.40;;
23046;SDS011;11691;51.462;6.902;2023-04-24T12:41:05;2.83;;;1.90;;
23046;SDS011;11691;51.462;6.902;2023-04-24T12:43:31;6.00;;;2.67;;
23046;SDS011;11691;51.462;6.902;2023-04-24T12:45:57;5.67;;;2.27;;
23046;SDS011;11691;51.462;6.902;2023-04-24T12:48:24;6.90;;;1.80;;
23046;SDS011;11691;51.462;6.902;2023-04-24T12:50:50;3.45;;;1.90;;
23046;SDS011;11691;51.462;6.902;2023-04-24T12:53:16;3.23;;;1.73;;
23046;SDS011;11691;51.462;6.902;2023-04-24T12:55:42;3.47;;;2.00;;
23046;SDS011;11691;51.462;6.902;2023-04-24T12:58:09;4.07;;;2.00;;
23046;SDS011;11691;51.462;6.902;2023-04-24T13:00:35;5.88;;;2.50;;
23046;SDS011;11691;51.462;6.902;2023-04-24T13:03:01;4.07;;;2.15;;
23046;SDS011;11691;51.462;6.902;2023-04-24T13:05:27;2.92;;;2.20;;
23046;SDS011;11691;51.462;6.902;2023-04-24T13:07:52;4.78;;;1.70;;
23046;SDS011;11691;51.462;6.902;2023-04-24T13:10:18;3.42;;;1.88;;
23046;SDS011;11691;51.462;6.902;2023-04-24T13:12:45;4.88;;;1.70;;
23046;SDS011;11691;51.462;6.902;2023-04-24T13:15:11;4.45;;;1.27;;
23046;SDS011;11691;51.462;6.902;2023-04-24T13:17:37;2.42;;;1.15;;
23046;SDS011;11691;51.462;6.902;2023-04-24T13:20:04;4.75;;;1.23;;
23046;SDS011;11691;51.462;6.902;2023-04-24T13:22:31;2.38;;;1.00;;
23046;SDS011;11691;51.462;6.902;2023-04-24T13:24:57;1.52;;;1.10;;
23046;SDS011;11691;51.462;6.902;2023-04-24T13:27:23;4.30;;;1.05;;
23046;SDS011;11691;51.462;6.902;2023-04-24T13:29:49;5.03;;;1.08;;
23046;SDS011;11691;51.462;6.902;2023-04-24T13:32:16;5.43;;;1.40;;
23046;SDS011;11691;51.462;6.902;2023-04-24T13:34:42;3.60;;;1.05;;
23046;SDS011;11691;51.462;6.902;2023-04-24T13:37:08;3.03;;;0.90;;
23046;SDS011;11691;51.462;6.902;2023-04-24T13:39:34;2.60;;;1.27;;
23046;SDS011;11691;51.462;6.902;2023-04-24T13:42:00;3.75;;;1.40;;
23046;SDS011;11691;51.462;6.902;2023-04-24T13:44:26;5.47;;;1.15;;
23046;SDS011;11691;51.462;6.902;2023-04-24T13:46:53;2.92;;;1.10;;
23046;SDS011;11691;51.462;6.902;2023-04-24T13:49:21;3.70;;;1.10;;
23046;SDS011;11691;51.462;6.902;2023-04-24T13:51:49;3.60;;;1.10;;
23046;SDS011;11691;51.462;6.902;2023-04-24T13:54:16;2.55;;;0.95;;
23046;SDS011;11691;51.462;6.902;2023-04-24T13:56:42;3.58;;;0.93;;
23046;SDS011;11691;51.462;6.902;2023-04-24T13:59:08;3.58;;;1.00;;
23046;SDS011;11691;51.462;6.902;2023-04-24T14:01:34;2.65;;;0.98;;
23046;SDS011;11691;51.462;6.902;2023-04-24T14:04:00;5.72;;;1.23;;
23046;SDS011;11691;51.462;6.902;2023-04-24T14:06:26;2.50;;;1.17;;
23046;SDS011;11691;51.462;6.902;2023-04-24T14:08:52;4.32;;;1.60;;
23046;SDS011;11691;51.462;6.902;2023-04-24T14:11:18;4.15;;;1.30;;
23046;SDS011;11691;51.462;6.902;2023-04-24T14:13:45;3.53;;;1.10;;
23046;SDS011;11691;51.462;6.902;2023-04-24T14:16:11;2.65;;;1.17;;
23046;SDS011;11691;51.462;6.902;2023-04-24T14:18:37;2.75;;;1.00;;
23046;SDS011;11691;51.462;6.902;2023-04-24T14:21:03;3.53;;;1.10;;
23046;SDS011;11691;51.462;6.902;2023-04-24T14:23:29;6.82;;;1.20;;
23046;SDS011;11691;51.462;6.902;2023-04-24T14:25:55;3.47;;;1.35;;
23046;SDS011;11691;51.462;6.902;2023-04-24T14:28:21;5.95;;;1.23;;
23046;SDS011;11691;51.462;6.902;2023-04-24T14:30:47;3.00;;;1.02;;
23046;SDS011;11691;51.462;6.902;2023-04-24T14:33:13;3.00;;;1.10;;
23046;SDS011;11691;51.462;6.902;2023-04-24T14:35:39;3.78;;;1.10;;
23046;SDS011;11691;51.462;6.902;2023-04-24T14:38:07;3.33;;;1.42;;
23046;SDS011;11691;51.462;6.902;2023-04-24T14:40:33;3.33;;;1.20;;
23046;SDS011;11691;51.462;6.902;2023-04-24T14:42:59;3.58;;;1.27;;
23046;SDS011;11691;51.462;6.902;2023-04-24T14:45:25;4.30;;;1.60;;
23046;SDS011;11691;51.462;6.902;2023-04-24T14:47:51;2.47;;;1.30;;
23046;SDS011;11691;51.462;6.902;2023-04-24T14:50:18;3.90;;;1.30;;